createdAt,value
2018-10-11T00:01:11.931Z,24.30
2018-10-11T00:03:41.200Z,27.97
2018-10-11T00:06:10.490Z,27.30
2018-10-11T00:08:39.725Z,26.30
2018-10-11T00:11:09.170Z,26.17
2018-10-11T00:13:38.415Z,27.73
2018-10-11T00:16:07.671Z,25.00
2018-10-11T00:18:36.969Z,27.40
2018-10-11T00:21:06.550Z,25.13
2018-10-11T00:23:35.886Z,24.63
2018-10-11T00:26:05.887Z,22.57
2018-10-11T00:28:35.167Z,23.60
2018-10-11T00:31:04.696Z,24.73
2018-10-11T00:33:34.916Z,25.13
2018-10-11T00:36:04.212Z,25.15
2018-10-11T00:38:33.566Z,20.67
2018-10-11T00:41:02.935Z,21.13
2018-10-11T00:43:32.344Z,26.30
2018-10-11T00:46:01.515Z,29.27
2018-10-11T00:48:30.734Z,29.80
2018-10-11T00:50:59.951Z,24.98
2018-10-11T00:53:29.187Z,31.10
2018-10-11T00:55:58.364Z,23.37
2018-10-11T00:58:27.581Z,25.90
2018-10-11T01:00:56.801Z,31.47
2018-10-11T01:03:26.062Z,27.47
2018-10-11T01:05:55.326Z,27.87
2018-10-11T01:08:24.565Z,26.23
2018-10-11T01:10:53.756Z,29.17
2018-10-11T01:13:22.962Z,30.15
2018-10-11T01:15:53.048Z,29.87
2018-10-11T01:18:22.230Z,30.87
2018-10-11T01:20:51.603Z,27.67
2018-10-11T01:23:20.782Z,25.50
2018-10-11T01:25:50.027Z,26.03
2018-10-11T01:28:19.238Z,26.50
2018-10-11T01:30:53.668Z,25.50
2018-10-11T01:33:22.835Z,25.07
2018-10-11T01:35:52.067Z,24.77
2018-10-11T01:38:21.947Z,27.95
2018-10-11T01:40:51.208Z,30.90
2018-10-11T01:43:20.463Z,28.47
2018-10-11T01:45:49.778Z,26.50
2018-10-11T01:48:18.970Z,29.07
2018-10-11T01:50:48.243Z,27.03
2018-10-11T01:53:17.468Z,25.50
2018-10-11T01:55:46.667Z,28.40
2018-10-11T01:58:16.376Z,25.33
2018-10-11T02:00:44.625Z,23.67
2018-10-11T02:03:13.895Z,31.83
2018-10-11T02:05:43.084Z,30.10
2018-10-11T02:08:12.259Z,29.60
2018-10-11T02:10:41.493Z,25.23
2018-10-11T02:13:10.682Z,27.67
2018-10-11T02:15:39.912Z,27.77
2018-10-11T02:18:09.104Z,29.20
2018-10-11T02:20:38.299Z,25.70
2018-10-11T02:23:07.721Z,29.20
2018-10-11T02:25:37.257Z,27.95
2018-10-11T02:28:07.023Z,26.53
2018-10-11T02:30:36.235Z,33.78
2018-10-11T02:33:05.411Z,31.90
2018-10-11T02:35:34.632Z,28.77
2018-10-11T02:38:03.812Z,32.03
2018-10-11T02:40:33.050Z,31.03
2018-10-11T02:43:02.227Z,29.43
2018-10-11T02:45:31.475Z,29.40
2018-10-11T02:48:00.728Z,25.93
2018-10-11T02:50:29.950Z,30.93
2018-10-11T02:52:59.123Z,30.23
2018-10-11T02:55:28.466Z,27.93
2018-10-11T02:58:08.680Z,29.47
2018-10-11T03:00:37.902Z,33.23
2018-10-11T03:03:13.351Z,28.40
2018-10-11T03:05:46.079Z,33.27
2018-10-11T03:08:18.651Z,37.47
2018-10-11T03:10:48.286Z,32.90
2018-10-11T03:13:17.631Z,33.00
2018-10-11T03:15:46.862Z,43.47
2018-10-11T03:18:16.226Z,33.90
2018-10-11T03:20:45.874Z,30.80
2018-10-11T03:23:16.232Z,32.27
2018-10-11T03:25:46.189Z,35.23
2018-10-11T03:28:16.911Z,34.00
2018-10-11T03:30:46.076Z,31.70
2018-10-11T03:33:15.748Z,31.53
2018-10-11T03:35:45.183Z,36.53
2018-10-11T03:38:14.563Z,32.20
2018-10-11T03:40:43.870Z,27.67
2018-10-11T03:43:13.716Z,33.23
2018-10-11T03:45:42.880Z,37.83
2018-10-11T03:48:12.576Z,35.75
2018-10-11T03:50:41.801Z,35.70
2018-10-11T03:53:10.997Z,31.10
2018-10-11T03:55:40.195Z,31.37
2018-10-11T03:58:09.387Z,31.03
2018-10-11T04:00:38.665Z,32.43
2018-10-11T04:03:07.915Z,34.33
2018-10-11T04:05:37.099Z,35.03
2018-10-11T04:08:06.463Z,30.40
2018-10-11T04:10:35.742Z,32.57
2018-10-11T04:13:04.969Z,35.50
2018-10-11T04:15:34.265Z,32.47
2018-10-11T04:18:03.418Z,34.10
2018-10-11T04:20:32.625Z,32.40
2018-10-11T04:23:01.847Z,35.90
2018-10-11T04:25:31.026Z,34.53
2018-10-11T04:28:00.263Z,32.97
2018-10-11T04:30:29.466Z,31.60
2018-10-11T04:32:58.692Z,33.60
2018-10-11T04:35:27.887Z,35.00
2018-10-11T04:37:57.088Z,32.40
2018-10-11T04:40:26.299Z,35.13
2018-10-11T04:42:55.588Z,35.93
2018-10-11T04:45:24.683Z,36.43
2018-10-11T04:47:53.975Z,38.07
2018-10-11T04:50:23.155Z,31.55
2018-10-11T04:52:52.379Z,35.97
2018-10-11T04:55:21.571Z,35.23
2018-10-11T04:57:50.793Z,36.73
2018-10-11T05:00:20.120Z,36.80
2018-10-11T05:02:49.355Z,35.57
2018-10-11T05:05:18.578Z,34.40
2018-10-11T05:07:47.770Z,31.20
2018-10-11T05:10:17.667Z,33.57
2018-10-11T05:12:47.029Z,38.20
2018-10-11T05:15:16.255Z,32.63
2018-10-11T05:17:45.978Z,39.95
2018-10-11T05:20:15.284Z,35.03
2018-10-11T05:22:44.535Z,36.70
2018-10-11T05:25:14.048Z,35.70
2018-10-11T05:27:43.285Z,34.67
2018-10-11T05:30:12.820Z,36.00
2018-10-11T05:32:42.082Z,35.73
2018-10-11T05:35:12.032Z,31.67
2018-10-11T05:37:41.261Z,36.20
2018-10-11T05:40:11.111Z,34.67
2018-10-11T05:42:40.351Z,40.00
2018-10-11T05:45:25.268Z,34.03
2018-10-11T05:47:54.530Z,36.33
2018-10-11T05:50:23.924Z,35.43
2018-10-11T05:52:55.940Z,38.00
2018-10-11T05:55:25.231Z,31.10
2018-10-11T05:57:54.451Z,35.17
2018-10-11T06:00:23.913Z,34.53
2018-10-11T06:02:58.234Z,30.00
2018-10-11T06:05:27.922Z,32.20
2018-10-11T06:07:57.424Z,28.80
2018-10-11T06:10:27.516Z,29.23
2018-10-11T06:12:57.051Z,27.67
2018-10-11T06:15:26.328Z,28.27
2018-10-11T06:17:55.622Z,26.13
2018-10-11T06:20:24.788Z,24.87
2018-10-11T06:22:54.004Z,24.47
2018-10-11T06:25:23.245Z,23.70
2018-10-11T06:27:52.488Z,22.57
2018-10-11T06:30:21.962Z,29.27
2018-10-11T06:32:51.287Z,28.20
2018-10-11T06:35:20.703Z,25.67
2018-10-11T06:37:50.876Z,23.20
2018-10-11T06:40:20.122Z,24.20
2018-10-11T06:42:49.461Z,26.80
2018-10-11T06:45:18.609Z,24.20
2018-10-11T06:47:50.294Z,27.33
2018-10-11T06:50:19.598Z,25.20
2018-10-11T06:52:48.828Z,23.20
2018-10-11T06:55:17.982Z,21.50
2018-10-11T06:57:47.183Z,30.17
2018-10-11T07:00:16.405Z,28.10
2018-10-11T07:02:45.661Z,23.07
2018-10-11T07:05:14.910Z,24.40
2018-10-11T07:07:44.095Z,30.17
2018-10-11T07:10:13.360Z,22.80
2018-10-11T07:12:42.600Z,28.27
2018-10-11T07:15:12.399Z,30.73
2018-10-11T07:17:41.600Z,26.90
2018-10-11T07:20:11.399Z,20.83
2018-10-11T07:22:40.620Z,22.77
2018-10-11T07:25:12.185Z,19.00
2018-10-11T07:27:41.456Z,23.57
2018-10-11T07:30:12.014Z,29.80
2018-10-11T07:32:41.227Z,24.23
2018-10-11T07:35:11.376Z,30.50
2018-10-11T07:37:40.542Z,32.70
2018-10-11T07:40:10.787Z,27.67
2018-10-11T07:42:39.999Z,22.90
2018-10-11T07:45:09.803Z,31.10
2018-10-11T07:47:39.032Z,25.90
2018-10-11T07:50:08.922Z,26.37
2018-10-11T07:52:38.155Z,29.57
2018-10-11T07:55:07.752Z,33.20
2018-10-11T07:57:36.979Z,27.63
2018-10-11T08:00:06.489Z,33.63
2018-10-11T08:02:35.753Z,39.07
2018-10-11T08:05:05.051Z,36.50
2018-10-11T08:07:34.346Z,41.02
2018-10-11T08:10:04.083Z,30.32
2018-10-11T08:12:33.328Z,26.47
2018-10-11T08:15:02.546Z,32.87
2018-10-11T08:17:35.058Z,42.00
2018-10-11T08:20:04.043Z,27.83
2018-10-11T08:22:33.177Z,24.40
2018-10-11T08:25:02.555Z,22.20
2018-10-11T08:27:31.592Z,23.10
2018-10-11T08:30:01.224Z,24.70
2018-10-11T08:32:30.548Z,29.83
2018-10-11T08:34:59.630Z,28.67
2018-10-11T08:37:28.916Z,31.70
2018-10-11T08:39:58.324Z,26.60
2018-10-11T08:42:27.603Z,27.50
2018-10-11T08:44:56.813Z,21.87
2018-10-11T08:47:26.030Z,20.50
2018-10-11T08:49:55.246Z,24.97
2018-10-11T08:52:24.448Z,23.27
2018-10-11T08:54:53.887Z,23.60
2018-10-11T08:57:23.292Z,23.80
2018-10-11T08:59:52.483Z,26.37
2018-10-11T09:02:21.742Z,24.53
2018-10-11T09:04:51.002Z,26.97
2018-10-11T09:07:20.197Z,25.67
2018-10-11T09:09:53.563Z,28.87
2018-10-11T09:12:18.592Z,25.63
2018-10-11T09:14:47.789Z,28.80
2018-10-11T09:17:17.063Z,30.90
2018-10-11T09:19:46.229Z,24.83
2018-10-11T09:22:15.444Z,24.60
2018-10-11T09:24:44.652Z,27.77
2018-10-11T09:27:13.851Z,22.87
2018-10-11T09:29:43.060Z,25.10
2018-10-11T09:32:12.307Z,30.33
2018-10-11T09:34:41.545Z,23.87
2018-10-11T09:37:11.059Z,27.40
2018-10-11T09:39:40.295Z,27.43
2018-10-11T09:42:10.001Z,26.90
2018-10-11T09:44:39.224Z,24.10
2018-10-11T09:47:08.727Z,30.90
2018-10-11T09:49:37.935Z,21.07
2018-10-11T09:52:07.176Z,27.70
2018-10-11T09:54:36.362Z,25.70
2018-10-11T09:57:17.672Z,31.10
2018-10-11T09:59:46.942Z,29.52
2018-10-11T10:02:17.679Z,24.03
2018-10-11T10:04:49.295Z,27.93
2018-10-11T10:07:19.249Z,25.70
2018-10-11T10:09:49.823Z,24.80
2018-10-11T10:12:19.109Z,23.20
2018-10-11T10:14:48.968Z,25.60
2018-10-11T10:17:18.253Z,25.93
2018-10-11T10:19:47.634Z,25.00
2018-10-11T10:22:16.875Z,28.37
2018-10-11T10:24:46.090Z,36.68
2018-10-11T10:27:15.346Z,36.87
2018-10-11T10:29:44.486Z,27.10
2018-10-11T10:32:13.688Z,26.80
2018-10-11T10:34:42.860Z,23.70
2018-10-11T10:37:12.492Z,25.03
2018-10-11T10:39:41.737Z,29.77
2018-10-11T10:42:11.272Z,28.90
2018-10-11T10:44:40.479Z,28.80
2018-10-11T10:47:10.365Z,25.43
2018-10-11T10:49:39.550Z,31.90
2018-10-11T10:52:09.192Z,26.30
2018-10-11T10:54:38.392Z,30.00
2018-10-11T10:57:08.160Z,38.13
2018-10-11T10:59:38.381Z,27.70
2018-10-11T11:02:08.049Z,29.10
2018-10-11T11:04:37.255Z,28.73
2018-10-11T11:07:06.531Z,34.43
2018-10-11T11:09:35.780Z,31.77
2018-10-11T11:12:05.039Z,27.43
2018-10-11T11:14:34.235Z,29.53
2018-10-11T11:17:03.403Z,26.63
2018-10-11T11:19:32.632Z,28.20
2018-10-11T11:22:01.849Z,29.60
2018-10-11T11:24:31.017Z,29.20
2018-10-11T11:27:00.243Z,27.63
2018-10-11T11:29:29.464Z,29.73
2018-10-11T11:31:58.695Z,26.33
2018-10-11T11:34:27.870Z,28.25
2018-10-11T11:36:57.085Z,34.33
2018-10-11T11:39:26.256Z,31.73
2018-10-11T11:41:55.484Z,29.30
2018-10-11T11:44:24.664Z,47.38
2018-10-11T11:46:53.908Z,30.80
2018-10-11T11:49:23.132Z,23.10
2018-10-11T11:51:52.439Z,29.40
2018-10-11T11:54:22.475Z,28.80
2018-10-11T11:56:52.302Z,26.27
2018-10-11T11:59:21.526Z,27.50
2018-10-11T12:01:50.762Z,33.17
2018-10-11T12:04:19.987Z,34.50
2018-10-11T12:06:49.199Z,31.73
2018-10-11T12:09:18.388Z,27.60
2018-10-11T12:11:47.581Z,29.40
2018-10-11T12:14:16.810Z,28.00
2018-10-11T12:16:46.092Z,27.63
2018-10-11T12:19:15.354Z,24.87
2018-10-11T12:21:44.580Z,25.93
2018-10-11T12:24:13.808Z,22.40
2018-10-11T12:26:43.010Z,25.23
2018-10-11T12:29:12.449Z,26.17
2018-10-11T12:31:41.640Z,25.23
2018-10-11T12:34:11.232Z,24.90
2018-10-11T12:36:40.415Z,21.40
2018-10-11T12:39:10.526Z,25.03
2018-10-11T12:41:39.737Z,24.65
2018-10-11T12:44:09.784Z,25.62
2018-10-11T12:46:40.634Z,24.83
2018-10-11T12:49:08.816Z,23.40
2018-10-11T12:51:38.016Z,23.10
2018-10-11T12:54:07.657Z,21.73
2018-10-11T12:56:37.005Z,21.10
2018-10-11T12:59:06.361Z,18.60
2018-10-11T13:01:35.585Z,21.93
2018-10-11T13:04:04.796Z,25.57
2018-10-11T13:06:34.000Z,22.13
2018-10-11T13:09:03.322Z,23.73
2018-10-11T13:11:32.521Z,22.27
2018-10-11T13:14:01.712Z,24.40
2018-10-11T13:16:30.892Z,23.73
2018-10-11T13:19:00.084Z,21.30
2018-10-11T13:21:29.395Z,19.37
2018-10-11T13:23:58.592Z,17.97
2018-10-11T13:26:27.783Z,24.47
2018-10-11T13:28:57.082Z,23.83
2018-10-11T13:31:26.180Z,23.50
2018-10-11T13:33:55.360Z,20.17
2018-10-11T13:36:24.576Z,19.32
2018-10-11T13:38:53.758Z,16.97
2018-10-11T13:41:23.014Z,18.27
2018-10-11T13:43:52.500Z,19.07
2018-10-11T13:46:21.804Z,17.63
2018-10-11T13:48:51.018Z,15.63
2018-10-11T13:51:20.244Z,16.63
2018-10-11T13:53:53.131Z,17.20
2018-10-11T13:56:18.684Z,16.23
2018-10-11T13:58:47.981Z,15.63
2018-10-11T14:01:17.447Z,15.20
2018-10-11T14:03:47.143Z,13.63
2018-10-11T14:06:17.328Z,17.90
2018-10-11T14:08:46.780Z,21.63
2018-10-11T14:11:16.042Z,16.73
2018-10-11T14:13:45.259Z,16.30
2018-10-11T14:16:14.465Z,20.35
2018-10-11T14:18:43.640Z,17.30
2018-10-11T14:21:12.880Z,15.40
2018-10-11T14:23:42.098Z,15.07
2018-10-11T14:26:11.286Z,28.60
2018-10-11T14:28:40.485Z,13.60
2018-10-11T14:31:10.233Z,21.23
2018-10-11T14:33:39.549Z,18.30
2018-10-11T14:36:09.114Z,19.50
2018-10-11T14:38:38.295Z,15.63
2018-10-11T14:41:07.534Z,16.13
2018-10-11T14:43:36.723Z,14.37
2018-10-11T14:46:05.924Z,14.40
2018-10-11T14:48:35.104Z,12.87
2018-10-11T14:51:04.532Z,16.80
2018-10-11T14:53:33.726Z,13.50
2018-10-11T14:56:02.901Z,15.97
2018-10-11T14:58:32.201Z,14.93
2018-10-11T15:01:01.443Z,15.47
2018-10-11T15:03:30.680Z,15.10
2018-10-11T15:05:59.869Z,20.33
2018-10-11T15:08:29.140Z,16.00
2018-10-11T15:10:58.411Z,13.10
2018-10-11T15:13:27.522Z,17.00
2018-10-11T15:15:57.043Z,19.27
2018-10-11T15:18:26.181Z,18.90
2018-10-11T15:20:55.400Z,15.10
2018-10-11T15:23:24.607Z,14.63
2018-10-11T15:25:53.780Z,15.23
2018-10-11T15:28:22.983Z,16.03
2018-10-11T15:30:52.215Z,17.60
2018-10-11T15:33:21.738Z,16.02
2018-10-11T15:35:50.983Z,16.07
2018-10-11T15:38:20.255Z,14.27
2018-10-11T15:40:49.474Z,18.87
2018-10-11T15:43:18.660Z,19.07
2018-10-11T15:45:48.063Z,16.97
2018-10-11T15:48:17.271Z,16.40
2018-10-11T15:50:46.467Z,20.27
2018-10-11T15:53:15.677Z,14.17
2018-10-11T15:55:44.887Z,23.13
2018-10-11T15:58:14.072Z,15.17
2018-10-11T16:00:44.164Z,16.93
2018-10-11T16:03:13.754Z,22.23
2018-10-11T16:05:43.028Z,16.90
2018-10-11T16:08:12.170Z,18.97
2018-10-11T16:10:41.501Z,16.63
2018-10-11T16:13:10.634Z,27.20
2018-10-11T16:15:39.803Z,19.40
2018-10-11T16:18:09.388Z,16.80
2018-10-11T16:20:38.726Z,15.77
2018-10-11T16:23:08.429Z,21.27
2018-10-11T16:25:37.619Z,19.80
2018-10-11T16:28:06.827Z,17.97
2018-10-11T16:30:36.185Z,20.30
2018-10-11T16:33:05.775Z,19.07
2018-10-11T16:35:34.972Z,18.47
2018-10-11T16:38:04.184Z,14.37
2018-10-11T16:40:33.388Z,19.90
2018-10-11T16:43:02.580Z,18.20
2018-10-11T16:45:31.888Z,19.30
2018-10-11T16:48:01.206Z,25.37
2018-10-11T16:50:30.438Z,23.60
2018-10-11T16:53:00.067Z,16.23
2018-10-11T16:55:29.380Z,21.67
2018-10-11T16:57:58.636Z,16.10
2018-10-11T17:00:27.896Z,23.93
2018-10-11T17:02:57.078Z,17.30
2018-10-11T17:05:26.289Z,18.07
2018-10-11T17:07:55.588Z,23.07
2018-10-11T17:10:24.783Z,18.63
2018-10-11T17:12:53.956Z,19.93
2018-10-11T17:15:23.389Z,27.30
2018-10-11T17:17:52.585Z,22.80
2018-10-11T17:20:22.555Z,23.25
2018-10-11T17:22:51.857Z,23.43
2018-10-11T17:25:21.145Z,17.93
2018-10-11T17:28:17.189Z,19.55
2018-10-11T17:30:46.407Z,17.60
2018-10-11T17:33:16.279Z,18.27
2018-10-11T17:35:45.504Z,19.35
2018-10-11T17:38:14.720Z,23.80
2018-10-11T17:40:43.947Z,18.50
2018-10-11T17:43:13.699Z,20.10
2018-10-11T17:45:42.925Z,52.67
2018-10-11T17:48:12.202Z,32.73
2018-10-11T17:50:41.398Z,28.90
2018-10-11T17:53:10.595Z,17.87
2018-10-11T17:55:39.855Z,23.22
2018-10-11T17:58:09.347Z,23.73
2018-10-11T18:00:38.640Z,19.20
2018-10-11T18:03:08.001Z,20.57
2018-10-11T18:05:37.193Z,19.43
2018-10-11T18:08:06.384Z,19.60
2018-10-11T18:10:35.588Z,19.30
2018-10-11T18:13:04.811Z,21.03
2018-10-11T18:15:33.992Z,25.80
2018-10-11T18:18:03.199Z,22.77
2018-10-11T18:20:32.419Z,22.40
2018-10-11T18:23:01.626Z,20.62
2018-10-11T18:25:30.809Z,20.70
2018-10-11T18:28:00.035Z,21.37
2018-10-11T18:30:29.290Z,29.50
2018-10-11T18:32:58.553Z,20.65
2018-10-11T18:35:27.846Z,23.80
2018-10-11T18:37:57.156Z,20.50
2018-10-11T18:40:26.339Z,21.90
2018-10-11T18:42:55.577Z,24.92
2018-10-11T18:45:24.807Z,34.90
2018-10-11T18:47:54.023Z,23.97
2018-10-11T18:50:23.380Z,25.27
2018-10-11T18:52:52.553Z,25.10
2018-10-11T18:55:22.360Z,17.27
2018-10-11T18:57:51.741Z,19.70
2018-10-11T19:00:21.302Z,20.60
2018-10-11T19:02:50.552Z,22.07
2018-10-11T19:05:19.767Z,20.07
2018-10-11T19:07:49.603Z,30.70
2018-10-11T19:10:19.494Z,24.57
2018-10-11T19:12:48.714Z,22.00
2018-10-11T19:15:20.216Z,23.27
2018-10-11T19:17:49.450Z,28.17
2018-10-11T19:20:19.178Z,27.73
2018-10-11T19:22:48.403Z,19.03
2018-10-11T19:25:18.552Z,21.57
2018-10-11T19:27:47.781Z,23.97
2018-10-11T19:30:17.624Z,36.90
2018-10-11T19:32:46.839Z,25.67
2018-10-11T19:35:16.608Z,25.47
2018-10-11T19:37:45.784Z,26.40
2018-10-11T19:40:16.061Z,19.43
2018-10-11T19:42:45.261Z,21.03
2018-10-11T19:45:14.803Z,23.70
2018-10-11T19:47:43.972Z,24.47
2018-10-11T19:50:13.279Z,26.52
2018-10-11T19:52:42.488Z,23.10
2018-10-11T19:55:11.691Z,28.60
2018-10-11T19:57:40.910Z,22.93
2018-10-11T20:00:10.137Z,23.83
2018-10-11T20:02:39.339Z,23.70
2018-10-11T20:05:08.595Z,24.83
2018-10-11T20:07:37.879Z,27.67
2018-10-11T20:10:07.445Z,30.90
2018-10-11T20:12:36.833Z,32.10
2018-10-11T20:15:06.202Z,28.97
2018-10-11T20:17:35.479Z,29.53
2018-10-11T20:20:04.886Z,24.37
2018-10-11T20:22:34.123Z,23.37
2018-10-11T20:25:03.327Z,31.93
2018-10-11T20:27:32.549Z,27.40
2018-10-11T20:30:01.773Z,28.67
2018-10-11T20:32:31.644Z,28.00
2018-10-11T20:35:00.853Z,24.00
2018-10-11T20:37:30.036Z,27.33
2018-10-11T20:39:59.236Z,31.23
2018-10-11T20:42:28.741Z,33.55
2018-10-11T20:44:58.028Z,26.63
2018-10-11T20:47:27.264Z,32.70
2018-10-11T20:49:56.473Z,30.30
2018-10-11T20:52:25.665Z,31.30
2018-10-11T20:54:54.916Z,26.83
2018-10-11T20:57:24.176Z,27.25
2018-10-11T20:59:53.368Z,31.97
2018-10-11T21:02:22.571Z,27.87
2018-10-11T21:04:51.756Z,22.98
2018-10-11T21:07:20.948Z,28.90
2018-10-11T21:09:50.116Z,28.63
2018-10-11T21:12:19.339Z,23.93
2018-10-11T21:14:48.520Z,28.90
2018-10-11T21:17:18.309Z,29.60
2018-10-11T21:19:47.501Z,32.70
2018-10-11T21:22:16.700Z,30.30
2018-10-11T21:24:45.911Z,40.55
2018-10-11T21:27:15.840Z,34.50
2018-10-11T21:29:45.036Z,29.40
2018-10-11T21:32:14.363Z,29.93
2018-10-11T21:34:43.536Z,27.13
2018-10-11T21:37:12.900Z,26.20
2018-10-11T21:39:42.065Z,25.73
2018-10-11T21:42:11.273Z,29.43
2018-10-11T21:44:40.475Z,34.60
2018-10-11T21:47:09.692Z,28.50
2018-10-11T21:49:38.906Z,29.27
2018-10-11T21:52:08.768Z,35.13
2018-10-11T21:54:37.964Z,38.23
2018-10-11T21:57:07.635Z,31.03
2018-10-11T21:59:36.871Z,30.17
2018-10-11T22:02:06.049Z,32.70
2018-10-11T22:04:35.235Z,34.53
2018-10-11T22:07:04.472Z,26.80
2018-10-11T22:09:33.650Z,31.97
2018-10-11T22:12:02.918Z,34.43
2018-10-11T22:14:32.101Z,35.70
2018-10-11T22:17:01.387Z,32.97
2018-10-11T22:19:30.592Z,29.93
2018-10-11T22:21:59.795Z,30.77
2018-10-11T22:24:29.009Z,32.58
2018-10-11T22:26:58.266Z,32.93
2018-10-11T22:29:27.471Z,29.70
2018-10-11T22:31:56.760Z,41.33
2018-10-11T22:34:25.959Z,34.93
2018-10-11T22:36:55.197Z,40.70
2018-10-11T22:39:24.376Z,36.20
2018-10-11T22:41:53.636Z,33.50
2018-10-11T22:44:22.867Z,36.47
2018-10-11T22:46:52.115Z,33.87
2018-10-11T22:49:21.380Z,30.10
2018-10-11T22:51:50.603Z,34.73
2018-10-11T22:54:19.905Z,36.23
2018-10-11T22:56:49.112Z,32.63
2018-10-11T22:59:18.315Z,32.30
2018-10-11T23:01:50.781Z,38.07
2018-10-11T23:04:20.042Z,34.97
2018-10-11T23:06:49.251Z,32.57
2018-10-11T23:09:18.587Z,38.87
2018-10-11T23:11:47.780Z,37.20
2018-10-11T23:14:17.006Z,37.27
2018-10-11T23:16:46.166Z,34.10
2018-10-11T23:19:16.053Z,33.43
2018-10-11T23:21:45.231Z,33.93
2018-10-11T23:24:14.649Z,34.53
2018-10-11T23:26:46.787Z,36.47
2018-10-11T23:29:16.556Z,33.30
2018-10-11T23:31:45.760Z,32.30
2018-10-11T23:34:15.560Z,33.87
2018-10-11T23:36:45.774Z,36.63
2018-10-11T23:39:15.540Z,41.63
2018-10-11T23:41:44.754Z,35.80
2018-10-11T23:44:14.529Z,35.60
2018-10-11T23:46:43.735Z,33.87
2018-10-11T23:49:12.946Z,30.60
2018-10-11T23:51:42.127Z,29.57
2018-10-11T23:54:11.372Z,31.43
2018-10-11T23:56:40.559Z,34.47
2018-10-11T23:59:09.752Z,31.73
